Terminal Aerodrome Forecast
Issued by NWS Brownsville, TX

Home | Current Version | Previous Version | Text Only | Print | Product List | Glossary On
Versions: 1 2 3 4 5 6 7 8 9 10 11 12 13 14 15 16 17
000
FTUS44 KBRO 281900 AAB
TAFHRL
TAF AMD
KHRL 281959Z 2820/2918 34011KT P6SM OVC011
     FM282100 34009KT P6SM BKN025
     FM290300 31007KT P6SM SCT025 OVC060
     FM291100 29006KT 5SM BR BKN025=

USA.gov is the U.S. government's official web portal to all federal, state and local government web resources and services.